Time;durP1;ratioP1;P1;durP2;ratioP2;P2;SDS_P1;SDS_P2;PMS_P1;PMS_P2;Temp;Humidity;BMP_temperature;BMP_pressure;BME280_temperature;BME280_humidity;BME280_pressure;Samples;Min_cycle;Max_cycle;Signal;HPM_P1;HPM_P2
2022/12/02 00:01:54;;;;;;;69.63;24.97;;;3.30;99.90;;;;;;5082154;28;20456;-64
2022/12/02 00:04:23;;;;;;;69.57;26.00;;;3.30;99.90;;;;;;5072791;28;20483;-64
2022/12/02 00:06:51;;;;;;;71.33;24.57;;;3.30;99.90;;;;;;5060281;28;20451;-64
2022/12/02 00:09:26;;;;;;;76.63;26.50;;;3.20;99.90;;;;;;5060236;28;20477;-65
2022/12/02 00:11:54;;;;;;;69.40;25.43;;;3.30;99.90;;;;;;5061914;28;20450;-65
2022/12/02 00:14:24;;;;;;;76.67;24.00;;;3.30;99.90;;;;;;5059398;28;20477;-64
2022/12/02 00:16:51;;;;;;;73.80;26.23;;;3.30;99.90;;;;;;5059914;28;20549;-64
2022/12/02 00:19:18;;;;;;;62.90;23.97;;;3.20;99.90;;;;;;5063363;28;20864;-65
2022/12/02 00:21:46;;;;;;;78.83;26.20;;;3.20;99.90;;;;;;5063038;28;20799;-65
2022/12/02 00:24:12;;;;;;;70.33;25.57;;;3.20;99.90;;;;;;5061777;28;20485;-65
2022/12/02 00:26:39;;;;;;;81.83;25.67;;;3.20;99.90;;;;;;5067028;28;20445;-65
2022/12/02 00:29:07;;;;;;;68.50;25.47;;;3.20;99.90;;;;;;5066307;28;20532;-65
2022/12/02 00:31:34;;;;;;;82.60;27.20;;;3.20;99.90;;;;;;5061140;28;20452;-65
2022/12/02 00:34:01;;;;;;;73.37;24.20;;;3.10;99.90;;;;;;5062429;28;20472;-65
2022/12/02 00:36:28;;;;;;;72.87;24.97;;;3.10;99.90;;;;;;5062908;28;20489;-65
2022/12/02 00:38:55;;;;;;;68.60;24.07;;;3.10;99.90;;;;;;5061066;28;20812;-65
2022/12/02 00:41:22;;;;;;;73.27;27.20;;;3.10;99.90;;;;;;5062743;28;20450;-65
2022/12/02 00:46:35;;;;;;;72.57;24.90;;;3.10;99.90;;;;;;5061044;28;20973;-65
2022/12/02 00:49:04;;;;;;;68.57;24.20;;;3.10;99.90;;;;;;5063513;28;20450;-65
2022/12/02 00:51:31;;;;;;;80.57;26.70;;;3.10;99.90;;;;;;5058922;28;20522;-66
2022/12/02 00:53:58;;;;;;;74.33;26.70;;;3.10;99.90;;;;;;5060731;28;21014;-65
2022/12/02 00:56:25;;;;;;;67.10;24.63;;;3.10;99.90;;;;;;5062843;28;20515;-66
2022/12/02 00:58:52;;;;;;;70.47;24.73;;;3.10;99.90;;;;;;5062046;28;20568;-66
2022/12/02 01:01:19;;;;;;;77.97;25.27;;;3.10;99.90;;;;;;5060475;28;20472;-65
2022/12/02 01:03:47;;;;;;;72.90;25.47;;;3.10;99.90;;;;;;5058564;28;20484;-66
2022/12/02 01:06:14;;;;;;;72.60;24.67;;;3.10;99.90;;;;;;5055226;28;20457;-66
2022/12/02 01:08:41;;;;;;;76.40;24.70;;;3.10;99.90;;;;;;5049878;28;20467;-65
2022/12/02 01:11:08;;;;;;;78.03;25.43;;;3.10;99.90;;;;;;5050178;28;20466;-66
2022/12/02 01:13:35;;;;;;;74.63;26.77;;;3.10;99.90;;;;;;5047809;28;20968;-65
2022/12/02 01:16:02;;;;;;;77.07;23.87;;;3.10;99.90;;;;;;5046801;28;20480;-66
2022/12/02 01:18:29;;;;;;;65.80;24.90;;;3.10;99.90;;;;;;5045089;28;20986;-66
2022/12/02 01:20:57;;;;;;;77.50;27.57;;;3.10;99.90;;;;;;5043717;28;20472;-66
2022/12/02 01:23:23;;;;;;;69.00;23.43;;;3.10;99.90;;;;;;5047495;28;20461;-66
2022/12/02 01:25:50;;;;;;;69.90;25.70;;;3.10;99.90;;;;;;5048954;28;20531;-66
2022/12/02 01:28:18;;;;;;;68.03;25.50;;;3.00;99.90;;;;;;5044744;28;20464;-66
2022/12/02 01:30:45;;;;;;;72.00;23.97;;;3.00;99.90;;;;;;5049498;28;20869;-66
2022/12/02 01:33:12;;;;;;;66.40;23.87;;;3.00;99.90;;;;;;5046825;28;20913;-65
2022/12/02 01:35:38;;;;;;;70.90;23.63;;;3.00;99.90;;;;;;5047444;28;20489;-65
2022/12/02 01:38:06;;;;;;;69.73;24.17;;;3.00;99.90;;;;;;5049903;28;20517;-65
2022/12/02 01:40:33;;;;;;;69.27;24.17;;;3.00;99.90;;;;;;5047746;28;20460;-65
2022/12/02 01:43:00;;;;;;;73.73;25.60;;;3.00;99.90;;;;;;5046250;28;20455;-65
2022/12/02 01:45:27;;;;;;;64.20;23.57;;;2.90;99.90;;;;;;5047456;28;20480;-65
2022/12/02 01:47:54;;;;;;;76.20;24.40;;;2.90;99.90;;;;;;5048197;28;20453;-65
2022/12/02 01:50:21;;;;;;;63.03;23.90;;;2.90;99.90;;;;;;5046939;28;20454;-65
2022/12/02 01:52:48;;;;;;;64.73;23.67;;;2.90;99.90;;;;;;5048899;28;20503;-65
2022/12/02 01:55:21;;;;;;;54.53;22.50;;;2.90;99.90;;;;;;5046733;28;20499;-65
2022/12/02 01:57:49;;;;;;;64.33;22.30;;;2.90;99.90;;;;;;5048465;28;20461;-65
2022/12/02 02:00:17;;;;;;;69.67;24.20;;;2.90;99.90;;;;;;5047299;28;20459;-65
2022/12/02 02:02:45;;;;;;;58.83;22.73;;;2.90;99.90;;;;;;5046950;28;20457;-65
2022/12/02 02:05:15;;;;;;;75.00;25.10;;;2.90;99.90;;;;;;5044535;28;20480;-65
2022/12/02 02:07:43;;;;;;;75.30;25.43;;;2.90;99.90;;;;;;5047444;28;20462;-65
2022/12/02 02:10:10;;;;;;;59.57;20.40;;;2.90;99.90;;;;;;5044992;28;20931;-64
2022/12/02 02:12:39;;;;;;;69.63;23.03;;;2.80;99.90;;;;;;5047491;28;20455;-64
2022/12/02 02:15:08;;;;;;;72.10;23.30;;;2.90;99.90;;;;;;5046592;28;20472;-64
2022/12/02 02:17:35;;;;;;;71.50;24.83;;;2.80;99.90;;;;;;5044590;28;20875;-65
2022/12/02 02:20:04;;;;;;;69.20;23.83;;;2.90;99.90;;;;;;5046760;28;20963;-64
2022/12/02 02:22:39;;;;;;;62.30;23.17;;;2.90;99.90;;;;;;5042765;28;20467;-65
2022/12/02 02:25:09;;;;;;;61.20;24.03;;;2.90;99.90;;;;;;5045775;28;20504;-65
2022/12/02 02:27:36;;;;;;;69.97;23.23;;;2.80;99.90;;;;;;5047588;28;21019;-64
2022/12/02 02:30:03;;;;;;;63.70;23.03;;;2.80;99.90;;;;;;5043995;28;20468;-65
2022/12/02 02:32:30;;;;;;;61.30;23.43;;;2.80;99.90;;;;;;5045274;28;20503;-64
2022/12/02 02:34:57;;;;;;;62.27;23.50;;;2.80;99.90;;;;;;5046256;28;20496;-64
2022/12/02 02:37:25;;;;;;;60.87;21.83;;;2.80;99.90;;;;;;5045426;28;20490;-65
2022/12/02 02:39:52;;;;;;;55.77;23.00;;;2.80;99.90;;;;;;5047493;28;20551;-64
2022/12/02 02:42:20;;;;;;;66.87;24.93;;;2.80;99.90;;;;;;5047784;28;20463;-64
2022/12/02 02:44:47;;;;;;;64.53;22.53;;;2.80;99.90;;;;;;5045902;28;20513;-64
2022/12/02 02:47:14;;;;;;;66.20;23.40;;;2.80;99.90;;;;;;5048192;28;20445;-64
2022/12/02 02:49:40;;;;;;;58.40;22.47;;;2.80;99.90;;;;;;5046715;28;20455;-65
2022/12/02 02:52:07;;;;;;;58.63;21.27;;;2.80;99.90;;;;;;5048658;28;20454;-65
2022/12/02 02:54:34;;;;;;;65.03;23.30;;;2.90;99.90;;;;;;5048772;28;20506;-65
2022/12/02 02:57:01;;;;;;;65.43;24.73;;;2.90;99.90;;;;;;5046778;28;21018;-65
2022/12/02 02:59:29;;;;;;;56.83;22.57;;;2.80;99.90;;;;;;5046900;28;20467;-65
2022/12/02 03:01:55;;;;;;;65.67;24.10;;;2.80;99.90;;;;;;5046816;28;20957;-65
2022/12/02 03:04:24;;;;;;;61.87;23.77;;;2.80;99.90;;;;;;5047087;28;20869;-65
2022/12/02 03:06:51;;;;;;;68.73;24.33;;;2.80;99.90;;;;;;5045527;28;20473;-65
2022/12/02 03:09:22;;;;;;;62.37;22.03;;;2.80;99.90;;;;;;5047821;28;20457;-64
2022/12/02 03:11:51;;;;;;;73.07;24.10;;;2.80;99.90;;;;;;5045357;28;20465;-65
2022/12/02 03:14:19;;;;;;;74.33;23.87;;;2.80;99.90;;;;;;5044873;28;20835;-64
2022/12/02 03:16:48;;;;;;;59.60;23.87;;;2.80;99.90;;;;;;5046562;28;20490;-64
2022/12/02 03:19:15;;;;;;;62.03;24.53;;;2.80;99.90;;;;;;5047692;28;20457;-64
2022/12/02 03:21:42;;;;;;;66.63;23.73;;;2.80;99.90;;;;;;5045931;28;20457;-65
2022/12/02 03:24:09;;;;;;;72.33;24.53;;;2.80;99.90;;;;;;5046524;28;20535;-64
2022/12/02 03:26:36;;;;;;;67.83;24.30;;;2.80;99.90;;;;;;5048611;28;20483;-65
2022/12/02 03:29:05;;;;;;;75.07;24.90;;;2.80;99.90;;;;;;5050065;28;20465;-65
2022/12/02 03:31:33;;;;;;;66.97;23.93;;;2.80;99.90;;;;;;5046538;28;20454;-65
2022/12/02 03:34:01;;;;;;;62.33;24.00;;;2.80;99.90;;;;;;5045595;28;20471;-69
2022/12/02 03:36:28;;;;;;;65.10;23.77;;;2.80;99.90;;;;;;5047201;28;21185;-66
2022/12/02 03:38:56;;;;;;;72.20;24.93;;;2.80;99.90;;;;;;5045978;28;21118;-66
2022/12/02 03:41:24;;;;;;;68.60;25.80;;;2.90;99.90;;;;;;5043093;28;20456;-65
2022/12/02 03:43:51;;;;;;;76.37;24.57;;;2.90;99.90;;;;;;5043399;28;20475;-66
2022/12/02 03:46:18;;;;;;;78.27;26.67;;;2.80;99.90;;;;;;5044639;28;20549;-66
2022/12/02 03:48:45;;;;;;;60.90;23.47;;;2.80;99.90;;;;;;5047337;28;20465;-65
2022/12/02 03:51:14;;;;;;;76.13;24.93;;;2.80;99.90;;;;;;5045657;28;20499;-66
2022/12/02 03:53:41;;;;;;;66.70;23.50;;;2.80;99.90;;;;;;5047717;28;20560;-65
2022/12/02 03:56:10;;;;;;;70.20;24.93;;;2.80;99.90;;;;;;5047489;28;21020;-66
2022/12/02 03:58:39;;;;;;;72.63;23.57;;;2.80;99.90;;;;;;5044685;28;20449;-66
2022/12/02 04:01:06;;;;;;;75.03;24.73;;;2.80;99.90;;;;;;5047382;28;20807;-66
2022/12/02 04:03:33;;;;;;;75.23;25.03;;;2.80;99.90;;;;;;5047855;28;20458;-65
2022/12/02 04:05:59;;;;;;;74.77;24.97;;;2.80;99.90;;;;;;5046942;28;20454;-66
2022/12/02 04:08:27;;;;;;;63.90;24.17;;;2.80;99.90;;;;;;5050205;28;20450;-66
2022/12/02 04:10:54;;;;;;;77.37;26.50;;;2.80;99.90;;;;;;5046987;28;20465;-64
2022/12/02 04:13:21;;;;;;;81.57;25.70;;;2.80;99.90;;;;;;5048024;28;20446;-64
2022/12/02 04:15:48;;;;;;;69.73;24.50;;;2.80;99.90;;;;;;5049622;28;20455;-66
2022/12/02 04:18:14;;;;;;;69.83;24.37;;;2.80;99.90;;;;;;5051431;28;20446;-66
2022/12/02 04:20:41;;;;;;;76.10;25.80;;;2.80;99.90;;;;;;5050228;28;20507;-64
2022/12/02 04:23:08;;;;;;;73.83;24.73;;;2.80;99.90;;;;;;5051366;28;20950;-67
2022/12/02 04:25:36;;;;;;;70.97;24.60;;;2.80;99.90;;;;;;5051114;28;20470;-64
2022/12/02 04:28:03;;;;;;;66.00;23.50;;;2.80;99.90;;;;;;5051096;28;20825;-64
2022/12/02 04:30:29;;;;;;;80.33;23.63;;;2.80;99.90;;;;;;5050831;28;20534;-64
2022/12/02 04:32:56;;;;;;;67.73;24.37;;;2.80;99.90;;;;;;5051192;28;20457;-64
2022/12/02 04:35:23;;;;;;;72.13;24.60;;;2.80;99.90;;;;;;5051040;28;20549;-64
2022/12/02 04:37:50;;;;;;;58.53;22.27;;;2.80;99.90;;;;;;5051026;28;20485;-64
2022/12/02 04:40:18;;;;;;;73.70;24.27;;;2.80;99.90;;;;;;5051043;28;20457;-64
2022/12/02 04:42:46;;;;;;;69.07;23.63;;;2.70;99.90;;;;;;5052983;28;20467;-64
2022/12/02 04:45:14;;;;;;;66.93;23.50;;;2.70;99.90;;;;;;5054746;28;20530;-64
2022/12/02 04:47:40;;;;;;;66.80;24.37;;;2.70;99.90;;;;;;5054894;28;20445;-64
2022/12/02 04:50:08;;;;;;;69.80;23.80;;;2.70;99.90;;;;;;5054792;28;20464;-64
2022/12/02 04:52:35;;;;;;;60.73;22.97;;;2.70;99.90;;;;;;5054660;28;20496;-64
2022/12/02 04:55:02;;;;;;;61.93;22.70;;;2.70;99.90;;;;;;5054246;28;20996;-64
2022/12/02 04:57:28;;;;;;;71.40;24.60;;;2.70;99.90;;;;;;5054338;28;20535;-64
2022/12/02 04:59:56;;;;;;;58.60;21.40;;;2.60;99.90;;;;;;5054700;28;20445;-64
2022/12/02 05:02:23;;;;;;;60.17;23.27;;;2.60;99.90;;;;;;5054572;28;20454;-64
2022/12/02 05:04:49;;;;;;;57.30;21.90;;;2.60;99.90;;;;;;5054379;28;20469;-64
2022/12/02 05:07:16;;;;;;;55.00;22.70;;;2.60;99.90;;;;;;5054334;28;20443;-64
2022/12/02 05:09:43;;;;;;;56.90;23.70;;;2.50;99.90;;;;;;5054358;28;20455;-64
2022/12/02 05:12:09;;;;;;;61.53;22.73;;;2.60;99.90;;;;;;5054049;28;20452;-64
2022/12/02 05:14:36;;;;;;;64.97;24.57;;;2.60;99.90;;;;;;5054271;28;20492;-64
2022/12/02 05:17:04;;;;;;;58.93;22.20;;;2.60;99.90;;;;;;5053662;28;20489;-64
2022/12/02 05:19:31;;;;;;;61.87;22.57;;;2.60;99.90;;;;;;5054130;28;20446;-64
2022/12/02 05:21:57;;;;;;;59.70;21.70;;;2.60;99.90;;;;;;5054228;28;20476;-64
2022/12/02 05:24:24;;;;;;;59.63;21.83;;;2.60;99.90;;;;;;5054010;28;20474;-64
2022/12/02 05:26:51;;;;;;;56.37;21.67;;;2.60;99.90;;;;;;5054058;28;20583;-64
2022/12/02 05:29:18;;;;;;;59.33;22.07;;;2.60;99.90;;;;;;5054032;28;20456;-64
2022/12/02 05:31:44;;;;;;;51.93;20.03;;;2.50;99.90;;;;;;5053599;28;20446;-64
2022/12/02 05:34:12;;;;;;;60.93;22.50;;;2.50;99.90;;;;;;5053695;28;20461;-64
2022/12/02 05:36:39;;;;;;;51.77;20.43;;;2.50;99.90;;;;;;5053538;28;21059;-64
2022/12/02 05:39:06;;;;;;;50.53;19.60;;;2.50;99.90;;;;;;5053784;28;20515;-64
2022/12/02 05:41:32;;;;;;;48.47;20.17;;;2.50;99.90;;;;;;5053893;28;20481;-64
2022/12/02 05:44:05;;;;;;;50.13;21.17;;;2.50;99.90;;;;;;5053324;28;20495;-64
2022/12/02 05:46:32;;;;;;;47.03;19.97;;;2.50;99.90;;;;;;5053404;28;20449;-64
2022/12/02 05:48:58;;;;;;;44.93;19.40;;;2.50;99.90;;;;;;5053580;28;20456;-64
2022/12/02 05:51:26;;;;;;;46.13;19.10;;;2.40;99.90;;;;;;5053562;28;20447;-64
2022/12/02 05:53:53;;;;;;;47.33;20.20;;;2.50;99.90;;;;;;5053071;28;20475;-64
2022/12/02 05:56:24;;;;;;;47.27;20.00;;;2.40;99.90;;;;;;5053211;28;20457;-64
2022/12/02 05:58:51;;;;;;;47.90;20.07;;;2.40;99.90;;;;;;5053139;28;20491;-64
2022/12/02 06:01:21;;;;;;;50.83;19.90;;;2.40;99.90;;;;;;5053440;28;20494;-64
2022/12/02 06:03:49;;;;;;;43.93;19.97;;;2.40;99.90;;;;;;5053385;28;20472;-64
2022/12/02 06:06:17;;;;;;;41.77;18.93;;;2.40;99.90;;;;;;5053460;28;20544;-64
2022/12/02 06:08:45;;;;;;;42.47;18.00;;;2.40;99.90;;;;;;5053058;28;20455;-64
2022/12/02 06:11:25;;;;;;;43.80;18.30;;;2.40;99.90;;;;;;5052941;28;20457;-64
2022/12/02 06:13:52;;;;;;;53.70;20.60;;;2.40;99.90;;;;;;5052691;28;20972;-64
2022/12/02 06:16:23;;;;;;;52.30;19.33;;;2.40;99.90;;;;;;5052765;28;20449;-64
2022/12/02 06:18:50;;;;;;;46.27;18.10;;;2.40;99.90;;;;;;5052913;28;20444;-64
2022/12/02 06:21:19;;;;;;;45.50;19.47;;;2.40;99.90;;;;;;5052730;28;20495;-64
2022/12/02 06:23:49;;;;;;;43.17;19.23;;;2.40;99.90;;;;;;5052827;28;20467;-64
2022/12/02 06:26:17;;;;;;;46.73;19.23;;;2.40;99.90;;;;;;5052919;28;20463;-64
2022/12/02 06:28:46;;;;;;;44.03;18.80;;;2.30;99.90;;;;;;5052744;28;20458;-64
2022/12/02 06:31:17;;;;;;;44.77;19.80;;;2.30;99.90;;;;;;5052643;28;20449;-64
2022/12/02 06:33:45;;;;;;;46.27;18.90;;;2.30;99.90;;;;;;5052502;28;20480;-64
2022/12/02 06:36:18;;;;;;;47.20;18.33;;;2.20;99.90;;;;;;5052755;28;20462;-64
2022/12/02 06:38:50;;;;;;;40.97;16.50;;;2.30;99.90;;;;;;5052557;28;20513;-64
2022/12/02 06:41:20;;;;;;;37.90;17.80;;;2.20;99.90;;;;;;5052625;28;20453;-64
2022/12/02 06:46:29;;;;;;;39.17;18.10;;;2.30;99.90;;;;;;5052052;28;20435;-64
2022/12/02 06:48:56;;;;;;;39.93;17.93;;;2.20;99.90;;;;;;5052504;28;20455;-64
2022/12/02 06:51:23;;;;;;;37.43;18.67;;;2.20;99.90;;;;;;5052478;28;20490;-64
2022/12/02 06:53:51;;;;;;;40.30;18.20;;;2.20;99.90;;;;;;5052085;28;20485;-65
2022/12/02 06:56:23;;;;;;;41.47;17.87;;;2.20;99.90;;;;;;5052285;28;20453;-65
2022/12/02 06:58:55;;;;;;;41.87;19.00;;;2.20;99.90;;;;;;5051967;28;20485;-65
2022/12/02 07:01:25;;;;;;;43.57;17.90;;;2.10;99.90;;;;;;5052349;28;20534;-65
2022/12/02 07:04:02;;;;;;;39.13;17.13;;;2.10;99.90;;;;;;5052045;28;20679;-65
2022/12/02 07:06:30;;;;;;;35.93;16.83;;;2.10;99.90;;;;;;5051900;28;20503;-65
2022/12/02 07:09:02;;;;;;;38.60;16.47;;;2.00;99.90;;;;;;5051880;28;20952;-65
2022/12/02 07:11:53;;;;;;;38.87;17.20;;;2.00;99.90;;;;;;5051884;28;20459;-65
2022/12/02 07:14:33;;;;;;;44.13;18.23;;;2.00;99.90;;;;;;5051722;28;20476;-65
2022/12/02 07:17:02;;;;;;;41.13;18.23;;;1.90;99.90;;;;;;5051437;28;20484;-65
2022/12/02 07:19:37;;;;;;;40.93;18.10;;;1.90;99.90;;;;;;5051648;28;20543;-65
2022/12/02 07:22:13;;;;;;;42.17;18.40;;;1.90;99.90;;;;;;5051951;28;20896;-65
2022/12/02 07:24:42;;;;;;;34.03;16.63;;;1.90;99.90;;;;;;5051575;28;21068;-65
2022/12/02 07:27:19;;;;;;;38.00;17.17;;;1.90;99.90;;;;;;5051896;28;20494;-65
2022/12/02 07:29:46;;;;;;;38.40;16.70;;;1.90;99.90;;;;;;5051495;28;20451;-65
2022/12/02 07:32:13;;;;;;;38.93;17.40;;;1.90;99.90;;;;;;5051695;28;20448;-65
2022/12/02 07:34:40;;;;;;;38.97;17.20;;;1.90;99.90;;;;;;5051265;28;20998;-65
2022/12/02 07:37:06;;;;;;;33.87;15.70;;;1.90;99.90;;;;;;5051233;28;20535;-65
2022/12/02 07:39:33;;;;;;;35.43;16.50;;;1.90;99.90;;;;;;5051465;28;20862;-65
2022/12/02 07:42:01;;;;;;;42.10;16.87;;;1.90;99.90;;;;;;5051480;28;20960;-65
2022/12/02 07:44:28;;;;;;;33.07;15.77;;;1.90;99.90;;;;;;5051073;28;20471;-65
2022/12/02 07:46:54;;;;;;;38.43;16.90;;;1.80;99.90;;;;;;5051816;28;20451;-65
2022/12/02 07:49:21;;;;;;;34.37;16.27;;;1.80;99.90;;;;;;5051616;28;20455;-65
2022/12/02 07:51:48;;;;;;;37.00;17.20;;;1.70;99.90;;;;;;5051472;28;20458;-65
2022/12/02 07:54:15;;;;;;;34.50;16.43;;;1.60;99.90;;;;;;5051113;28;20474;-65
2022/12/02 07:56:42;;;;;;;33.40;15.87;;;1.60;99.90;;;;;;5051243;28;20471;-65
2022/12/02 07:59:10;;;;;;;35.23;16.10;;;1.60;99.90;;;;;;5051267;28;20536;-66
2022/12/02 08:01:36;;;;;;;42.57;17.37;;;1.50;99.90;;;;;;5051475;28;20451;-66
2022/12/02 08:04:03;;;;;;;32.47;15.30;;;1.60;99.90;;;;;;5051258;28;20475;-66
2022/12/02 08:06:30;;;;;;;36.30;16.90;;;1.60;99.90;;;;;;5051327;28;20453;-66
2022/12/02 08:08:56;;;;;;;34.73;16.10;;;1.60;99.90;;;;;;5051237;28;20816;-66
2022/12/02 08:11:23;;;;;;;37.37;16.50;;;1.50;99.90;;;;;;5051012;28;20458;-66
2022/12/02 08:13:50;;;;;;;37.87;16.43;;;1.50;99.90;;;;;;5051217;28;20478;-66
2022/12/02 08:16:18;;;;;;;33.53;15.20;;;1.50;99.90;;;;;;5051011;28;20450;-66
2022/12/02 08:18:44;;;;;;;31.47;15.10;;;1.50;99.90;;;;;;5054988;28;21011;-66
2022/12/02 08:21:11;;;;;;;32.17;15.27;;;1.50;99.90;;;;;;5055079;28;20785;-66
2022/12/02 08:23:38;;;;;;;40.00;16.67;;;1.50;99.90;;;;;;5055011;28;20490;-66
2022/12/02 08:26:05;;;;;;;32.57;15.27;;;1.50;99.90;;;;;;5055203;28;20455;-66
2022/12/02 08:28:31;;;;;;;38.23;14.67;;;1.50;99.90;;;;;;5055308;28;20447;-66
2022/12/02 08:30:58;;;;;;;29.77;14.77;;;1.60;99.90;;;;;;5054966;28;21052;-66
2022/12/02 08:33:26;;;;;;;30.33;15.43;;;1.50;99.90;;;;;;5054927;28;20932;-66
2022/12/02 08:35:53;;;;;;;36.23;17.90;;;1.60;99.90;;;;;;5054571;28;20453;-66
2022/12/02 08:38:20;;;;;;;39.50;16.40;;;1.50;99.90;;;;;;5054789;28;21017;-66
2022/12/02 08:40:46;;;;;;;36.90;15.37;;;1.50;99.90;;;;;;5055008;28;20503;-66
2022/12/02 08:43:13;;;;;;;36.00;16.63;;;1.50;99.90;;;;;;5054821;28;20976;-66
2022/12/02 08:45:40;;;;;;;38.70;15.37;;;1.50;99.90;;;;;;5054625;28;20462;-66
2022/12/02 08:48:07;;;;;;;36.60;16.47;;;1.50;99.90;;;;;;5054802;28;20458;-66
2022/12/02 08:50:35;;;;;;;29.60;14.27;;;1.50;99.90;;;;;;5054397;28;20947;-66
2022/12/02 08:53:01;;;;;;;35.93;14.90;;;1.50;99.90;;;;;;5054800;28;20450;-66
2022/12/02 08:55:29;;;;;;;35.00;15.60;;;1.50;99.90;;;;;;5054551;28;20494;-66
2022/12/02 08:57:56;;;;;;;32.57;15.40;;;1.50;99.90;;;;;;5054490;28;20577;-66
2022/12/02 09:00:23;;;;;;;35.53;16.13;;;1.50;99.90;;;;;;5054440;28;20893;-66
2022/12/02 09:02:50;;;;;;;30.73;14.97;;;1.50;99.90;;;;;;5054467;28;20477;-66
2022/12/02 09:05:17;;;;;;;34.63;16.43;;;1.40;99.90;;;;;;5054025;28;20482;-66
2022/12/02 09:07:45;;;;;;;32.70;14.80;;;1.50;99.90;;;;;;5054565;28;20457;-66
2022/12/02 09:10:13;;;;;;;35.40;15.87;;;1.40;99.90;;;;;;5054589;28;20454;-66
2022/12/02 09:12:40;;;;;;;33.53;15.33;;;1.40;99.90;;;;;;5054426;28;20451;-66
2022/12/02 09:15:08;;;;;;;37.50;17.37;;;1.40;99.90;;;;;;5053590;28;20475;-66
2022/12/02 09:17:34;;;;;;;32.00;16.03;;;1.40;99.90;;;;;;5054573;28;20484;-66
2022/12/02 09:20:01;;;;;;;34.33;16.57;;;1.40;99.90;;;;;;5054215;28;20449;-66
2022/12/02 09:22:28;;;;;;;32.47;15.23;;;1.30;99.90;;;;;;5054195;28;20453;-66
2022/12/02 09:24:56;;;;;;;33.77;14.87;;;1.30;99.90;;;;;;5054022;28;20961;-66
2022/12/02 09:27:23;;;;;;;34.33;15.97;;;1.30;99.90;;;;;;5053641;28;20527;-66
2022/12/02 09:29:50;;;;;;;35.57;15.63;;;1.30;99.90;;;;;;5053741;28;20518;-66
2022/12/02 09:32:16;;;;;;;35.00;17.53;;;1.30;99.90;;;;;;5054172;28;20453;-66
2022/12/02 09:34:43;;;;;;;34.70;16.37;;;1.30;99.90;;;;;;5053737;28;20469;-66
2022/12/02 09:37:10;;;;;;;33.30;16.37;;;1.30;99.90;;;;;;5053994;28;20456;-66
2022/12/02 09:39:36;;;;;;;33.13;16.17;;;1.20;99.90;;;;;;5053758;28;20488;-66
2022/12/02 09:42:05;;;;;;;31.63;16.27;;;1.20;99.90;;;;;;5053739;28;20453;-66
2022/12/02 09:44:31;;;;;;;37.40;16.30;;;1.20;99.90;;;;;;5053244;28;20478;-66
2022/12/02 09:46:59;;;;;;;40.50;17.17;;;1.10;99.90;;;;;;5053968;28;20453;-66
2022/12/02 09:49:26;;;;;;;35.27;17.33;;;1.20;99.90;;;;;;5053772;28;20451;-66
2022/12/02 09:51:58;;;;;;;38.00;17.80;;;1.20;99.90;;;;;;5053562;28;20453;-66
2022/12/02 09:54:24;;;;;;;34.00;15.90;;;1.20;99.90;;;;;;5053525;28;20470;-66
2022/12/02 09:56:51;;;;;;;43.33;17.60;;;1.20;99.90;;;;;;5053137;28;21109;-66
2022/12/02 09:59:19;;;;;;;36.47;16.67;;;1.20;99.90;;;;;;5053585;28;20512;-65
2022/12/02 10:01:47;;;;;;;36.30;16.47;;;1.20;99.90;;;;;;5053651;28;20514;-66
2022/12/02 10:04:17;;;;;;;37.97;17.70;;;1.20;99.90;;;;;;5053284;28;20529;-66
2022/12/02 10:06:44;;;;;;;39.10;17.10;;;1.20;99.90;;;;;;5053393;28;20456;-65
2022/12/02 10:09:15;;;;;;;38.20;17.60;;;1.20;99.90;;;;;;5053046;28;20459;-65
2022/12/02 10:11:43;;;;;;;41.50;18.83;;;1.20;99.90;;;;;;5053366;28;20541;-66
2022/12/02 10:14:11;;;;;;;39.03;19.00;;;1.20;99.90;;;;;;5053232;28;20517;-66
2022/12/02 10:16:39;;;;;;;36.00;16.80;;;1.20;99.90;;;;;;5052758;28;20477;-66
2022/12/02 10:19:07;;;;;;;40.60;17.80;;;1.20;99.90;;;;;;5052970;28;21018;-66
2022/12/02 10:21:34;;;;;;;43.93;19.27;;;1.30;99.90;;;;;;5052795;28;20481;-66
2022/12/02 10:24:02;;;;;;;33.90;17.90;;;1.20;99.90;;;;;;5053008;28;20477;-66
2022/12/02 10:26:45;;;;;;;47.90;20.60;;;1.20;99.90;;;;;;5053032;28;20550;-66
2022/12/02 10:29:16;;;;;;;42.10;18.80;;;1.30;99.90;;;;;;5053034;28;20450;-66
2022/12/02 10:31:53;;;;;;;44.97;18.53;;;1.30;99.90;;;;;;5052604;28;20449;-66
2022/12/02 10:34:21;;;;;;;45.53;20.33;;;1.30;99.90;;;;;;5052744;28;20482;-66
2022/12/02 10:36:48;;;;;;;39.93;19.20;;;1.30;99.90;;;;;;5052869;28;20558;-65
2022/12/02 10:39:26;;;;;;;39.47;18.43;;;1.30;99.90;;;;;;5052163;28;20852;-66
2022/12/02 10:42:12;;;;;;;40.30;19.10;;;1.30;99.90;;;;;;5052592;28;20827;-65
2022/12/02 10:44:41;;;;;;;47.03;19.60;;;1.40;99.90;;;;;;5052741;28;20566;-66
2022/12/02 10:47:17;;;;;;;44.53;20.07;;;1.40;99.90;;;;;;5052612;28;20462;-66
2022/12/02 10:49:46;;;;;;;36.40;17.27;;;1.40;99.90;;;;;;5052575;28;20448;-66
2022/12/02 10:52:14;;;;;;;42.40;19.30;;;1.40;99.90;;;;;;5052363;28;20450;-66
2022/12/02 10:54:46;;;;;;;42.47;19.83;;;1.40;99.90;;;;;;5051902;28;20481;-66
2022/12/02 10:57:21;;;;;;;41.80;18.97;;;1.40;99.90;;;;;;5052602;28;20756;-66
2022/12/02 10:59:47;;;;;;;39.67;19.03;;;1.50;99.90;;;;;;5052316;28;20493;-66
2022/12/02 11:02:21;;;;;;;48.53;21.43;;;1.50;99.90;;;;;;5052229;28;20455;-66
2022/12/02 11:04:49;;;;;;;40.73;18.50;;;1.50;99.90;;;;;;5052215;28;20501;-66
2022/12/02 11:07:16;;;;;;;47.27;19.17;;;1.50;99.90;;;;;;5051955;28;20483;-66
2022/12/02 11:09:45;;;;;;;38.13;18.03;;;1.50;99.90;;;;;;5052269;28;20505;-66
2022/12/02 11:12:40;;;;;;;43.27;18.50;;;1.60;99.90;;;;;;5052162;28;20881;-66
2022/12/02 11:15:39;;;;;;;41.83;19.93;;;1.50;99.90;;;;;;5051423;28;20467;-66
2022/12/02 11:18:08;;;;;;;40.63;18.70;;;1.60;99.90;;;;;;5052153;28;20658;-66
2022/12/02 11:20:41;;;;;;;36.47;17.80;;;1.60;99.90;;;;;;5051825;28;20935;-66
2022/12/02 11:23:26;;;;;;;41.13;17.80;;;1.60;99.90;;;;;;5052018;28;20443;-66
2022/12/02 11:26:08;;;;;;;41.60;19.07;;;1.60;99.90;;;;;;5051859;28;20454;-65
2022/12/02 11:29:08;;;;;;;42.37;18.07;;;1.70;99.90;;;;;;5052001;28;20443;-65
2022/12/02 11:31:34;;;;;;;38.83;17.83;;;1.70;99.90;;;;;;5051618;28;20441;-65
2022/12/02 11:34:19;;;;;;;40.83;18.27;;;1.60;99.90;;;;;;5051463;28;20890;-66
2022/12/02 11:36:45;;;;;;;33.80;17.07;;;1.60;99.90;;;;;;5051845;28;20446;-66
2022/12/02 11:39:12;;;;;;;41.90;19.90;;;1.60;99.90;;;;;;5051717;28;20485;-65
2022/12/02 11:42:19;;;;;;;36.67;17.73;;;1.70;99.90;;;;;;5051424;28;20446;-65
2022/12/02 11:44:45;;;;;;;38.97;18.33;;;1.60;99.90;;;;;;5051599;28;20473;-67
2022/12/02 11:47:28;;;;;;;35.77;17.30;;;1.60;99.90;;;;;;5051583;28;20509;-67
2022/12/02 11:50:09;;;;;;;32.93;16.50;;;1.50;99.90;;;;;;5051501;28;20458;-67
2022/12/02 11:52:39;;;;;;;45.80;18.40;;;1.50;99.90;;;;;;5051129;28;20458;-67
2022/12/02 11:55:14;;;;;;;30.97;16.17;;;1.50;99.90;;;;;;5051176;28;20511;-67
2022/12/02 11:57:46;;;;;;;33.90;16.00;;;1.60;99.90;;;;;;5051513;28;20523;-67
2022/12/02 12:00:26;;;;;;;34.13;16.80;;;1.60;99.90;;;;;;5051433;28;20519;-66
2022/12/02 12:03:06;;;;;;;36.07;15.93;;;1.60;99.90;;;;;;5051357;28;20449;-67
2022/12/02 12:05:34;;;;;;;34.80;17.73;;;1.60;99.90;;;;;;5051208;28;20472;-67
2022/12/02 12:08:00;;;;;;;35.53;16.87;;;1.60;99.90;;;;;;5051517;28;20463;-67
2022/12/02 12:10:30;;;;;;;36.10;16.57;;;1.60;99.90;;;;;;5051234;28;20452;-67
2022/12/02 12:13:21;;;;;;;32.00;15.90;;;1.60;99.90;;;;;;5051307;28;20451;-66
2022/12/02 12:15:57;;;;;;;35.07;16.50;;;1.60;99.90;;;;;;5050740;28;20475;-66
2022/12/02 12:18:42;;;;;;;30.67;15.83;;;1.60;99.90;;;;;;5051252;28;20466;-67
2022/12/02 12:21:10;;;;;;;31.60;16.07;;;1.60;99.90;;;;;;5051263;28;20494;-67
2022/12/02 12:23:38;;;;;;;32.43;15.43;;;1.60;99.90;;;;;;5051195;28;20861;-66
2022/12/02 12:26:06;;;;;;;35.70;16.23;;;1.60;99.90;;;;;;5051280;28;20450;-66
2022/12/02 12:28:35;;;;;;;32.10;15.20;;;1.60;99.90;;;;;;5051098;28;20949;-66
2022/12/02 12:31:04;;;;;;;31.80;15.43;;;1.70;99.90;;;;;;5051108;28;20455;-67
2022/12/02 12:33:31;;;;;;;31.60;14.90;;;1.70;99.90;;;;;;5051036;28;20475;-67
2022/12/02 12:35:59;;;;;;;32.53;14.87;;;1.60;99.90;;;;;;5051046;28;20874;-69
2022/12/02 12:38:28;;;;;;;29.27;13.90;;;1.60;99.90;;;;;;5050812;28;20531;-67
2022/12/02 12:40:56;;;;;;;34.87;15.70;;;1.70;99.90;;;;;;5051256;28;20447;-67
2022/12/02 12:43:23;;;;;;;28.87;14.57;;;1.70;99.90;;;;;;5051094;28;20456;-67
2022/12/02 12:45:50;;;;;;;32.77;15.27;;;1.70;99.90;;;;;;5050828;28;20455;-67
2022/12/02 12:48:17;;;;;;;30.53;14.60;;;1.70;99.90;;;;;;5051002;28;20462;-66
2022/12/02 12:50:43;;;;;;;27.80;14.90;;;1.70;99.90;;;;;;5050816;28;20454;-67